sensor_id;sensor_type;location;lat;lon;timestamp;pressure;altitude;pressure_sealevel;temperature;humidity
42603;BME280;28233;55.748;48.752;2023-02-23T00:01:17;97467.53;;;-15.13;85.49
42603;BME280;28233;55.748;48.752;2023-02-23T00:03:20;97481.69;;;-15.07;85.53
42603;BME280;28233;55.748;48.752;2023-02-23T00:05:24;97474.00;;;-15.15;85.51
42603;BME280;28233;55.748;48.752;2023-02-23T00:07:27;97485.59;;;-15.23;85.20
42603;BME280;28233;55.748;48.752;2023-02-23T00:09:30;97472.41;;;-15.16;85.58
42603;BME280;28233;55.748;48.752;2023-02-23T00:11:37;97482.34;;;-15.18;85.61
42603;BME280;28233;55.748;48.752;2023-02-23T00:13:41;97476.47;;;-15.20;85.63
42603;BME280;28233;55.748;48.752;2023-02-23T00:15:47;97476.28;;;-15.19;86.02
42603;BME280;28233;55.748;48.752;2023-02-23T00:17:49;97475.66;;;-15.21;85.57
42603;BME280;28233;55.748;48.752;2023-02-23T00:19:53;97473.84;;;-15.20;85.69
42603;BME280;28233;55.748;48.752;2023-02-23T00:21:56;97481.56;;;-15.25;85.74
42603;BME280;28233;55.748;48.752;2023-02-23T00:24:05;97482.72;;;-15.21;86.27
42603;BME280;28233;55.748;48.752;2023-02-23T00:26:09;97472.44;;;-15.29;86.13
42603;BME280;28233;55.748;48.752;2023-02-23T00:28:12;97475.06;;;-15.29;85.46
42603;BME280;28233;55.748;48.752;2023-02-23T00:30:16;97478.13;;;-15.26;85.91
42603;BME280;28233;55.748;48.752;2023-02-23T00:32:19;97482.78;;;-15.35;86.14
42603;BME280;28233;55.748;48.752;2023-02-23T00:34:22;97478.72;;;-15.30;85.93
42603;BME280;28233;55.748;48.752;2023-02-23T00:36:27;97471.00;;;-15.25;86.15
42603;BME280;28233;55.748;48.752;2023-02-23T00:38:30;97477.28;;;-15.33;85.82
42603;BME280;28233;55.748;48.752;2023-02-23T00:40:39;97481.16;;;-15.36;86.29
42603;BME280;28233;55.748;48.752;2023-02-23T00:42:46;97476.91;;;-15.37;86.17
42603;BME280;28233;55.748;48.752;2023-02-23T00:44:49;97481.75;;;-15.27;86.34
42603;BME280;28233;55.748;48.752;2023-02-23T00:46:51;97478.72;;;-15.30;85.93
42603;BME280;28233;55.748;48.752;2023-02-23T00:48:56;97483.59;;;-15.34;86.21
42603;BME280;28233;55.748;48.752;2023-02-23T00:51:03;97480.75;;;-15.32;86.48
42603;BME280;28233;55.748;48.752;2023-02-23T00:53:06;97483.78;;;-15.36;86.33
42603;BME280;28233;55.748;48.752;2023-02-23T00:55:13;97487.03;;;-15.34;86.36
42603;BME280;28233;55.748;48.752;2023-02-23T00:57:16;97490.06;;;-15.30;86.23
42603;BME280;28233;55.748;48.752;2023-02-23T00:59:19;97485.19;;;-15.33;85.95
42603;BME280;28233;55.748;48.752;2023-02-23T01:01:22;97484.63;;;-15.35;86.18
42603;BME280;28233;55.748;48.752;2023-02-23T01:03:27;97490.88;;;-15.36;86.28
42603;BME280;28233;55.748;48.752;2023-02-23T01:05:33;97485.84;;;-15.38;86.77
42603;BME280;28233;55.748;48.752;2023-02-23T01:07:37;97493.31;;;-15.35;86.34
42603;BME280;28233;55.748;48.752;2023-02-23T01:09:39;97480.97;;;-15.41;86.38
42603;BME280;28233;55.748;48.752;2023-02-23T01:11:42;97491.72;;;-15.42;85.94
42603;BME280;28233;55.748;48.752;2023-02-23T01:13:51;97495.78;;;-15.40;86.46
42603;BME280;28233;55.748;48.752;2023-02-23T01:15:54;97498.59;;;-15.48;86.30
42603;BME280;28233;55.748;48.752;2023-02-23T01:17:57;97493.56;;;-15.49;86.36
42603;BME280;28233;55.748;48.752;2023-02-23T01:20:00;97493.16;;;-15.46;86.31
42603;BME280;28233;55.748;48.752;2023-02-23T01:22:04;97491.53;;;-15.54;85.91
42603;BME280;28233;55.748;48.752;2023-02-23T01:24:07;97503.25;;;-15.43;86.44
42603;BME280;28233;55.748;48.752;2023-02-23T01:26:35;97503.88;;;-15.48;85.82
42603;BME280;28233;55.748;48.752;2023-02-23T01:28:38;97506.94;;;-15.58;85.93
42603;BME280;28233;55.748;48.752;2023-02-23T01:30:41;97502.88;;;-15.53;86.22
42603;BME280;28233;55.748;48.752;2023-02-23T01:32:43;97504.47;;;-15.59;86.34
42603;BME280;28233;55.748;48.752;2023-02-23T01:34:46;97495.59;;;-15.65;86.27
42603;BME280;28233;55.748;48.752;2023-02-23T01:36:49;97508.75;;;-15.65;86.30
42603;BME280;28233;55.748;48.752;2023-02-23T01:38:52;97502.69;;;-15.65;85.98
42603;BME280;28233;55.748;48.752;2023-02-23T01:40:59;97505.50;;;-15.60;86.22
42603;BME280;28233;55.748;48.752;2023-02-23T01:43:19;97507.78;;;-15.70;85.96
42603;BME280;28233;55.748;48.752;2023-02-23T01:45:32;97519.13;;;-15.77;85.77
42603;BME280;28233;55.748;48.752;2023-02-23T01:47:40;97513.84;;;-15.77;85.81
42603;BME280;28233;55.748;48.752;2023-02-23T01:49:43;97510.63;;;-15.79;86.28
42603;BME280;28233;55.748;48.752;2023-02-23T01:51:49;97514.25;;;-15.86;86.24
42603;BME280;28233;55.748;48.752;2023-02-23T01:54:14;97527.63;;;-15.88;86.21
42603;BME280;28233;55.748;48.752;2023-02-23T01:56:21;97522.94;;;-15.92;86.42
42603;BME280;28233;55.748;48.752;2023-02-23T01:58:27;97523.97;;;-15.93;86.41
42603;BME280;28233;55.748;48.752;2023-02-23T02:00:31;97518.09;;;-15.95;86.20
42603;BME280;28233;55.748;48.752;2023-02-23T02:02:37;97515.06;;;-16.06;86.47
42603;BME280;28233;55.748;48.752;2023-02-23T02:04:41;97527.19;;;-16.11;86.70
42603;BME280;28233;55.748;48.752;2023-02-23T02:06:48;97518.09;;;-16.22;86.42
42603;BME280;28233;55.748;48.752;2023-02-23T02:09:01;97525.78;;;-16.14;86.47
42603;BME280;28233;55.748;48.752;2023-02-23T02:11:07;97528.59;;;-16.22;86.40
42603;BME280;28233;55.748;48.752;2023-02-23T02:13:29;97522.50;;;-16.23;86.44
42603;BME280;28233;55.748;48.752;2023-02-23T02:18:32;97527.53;;;-16.34;86.45
42603;BME280;28233;55.748;48.752;2023-02-23T02:25:40;97524.72;;;-16.40;87.07
42603;BME280;28233;55.748;48.752;2023-02-23T02:33:23;97539.25;;;-16.50;86.61
42603;BME280;28233;55.748;48.752;2023-02-23T02:40:27;97542.44;;;-16.62;86.92
42603;BME280;28233;55.748;48.752;2023-02-23T02:42:37;97538.81;;;-16.61;86.98
42603;BME280;28233;55.748;48.752;2023-02-23T02:45:12;97534.56;;;-16.62;86.74
42603;BME280;28233;55.748;48.752;2023-02-23T02:47:28;97527.91;;;-16.57;86.48
42603;BME280;28233;55.748;48.752;2023-02-23T02:49:55;97531.09;;;-16.69;86.71
42603;BME280;28233;55.748;48.752;2023-02-23T02:52:39;97538.41;;;-16.64;86.89
42603;BME280;28233;55.748;48.752;2023-02-23T02:54:52;97533.34;;;-16.66;86.88
42603;BME280;28233;55.748;48.752;2023-02-23T02:57:00;97542.84;;;-16.65;86.73
42603;BME280;28233;55.748;48.752;2023-02-23T02:59:09;97539.41;;;-16.65;86.63
42603;BME280;28233;55.748;48.752;2023-02-23T03:01:31;97552.56;;;-16.58;86.53
42603;BME280;28233;55.748;48.752;2023-02-23T03:03:53;97538.38;;;-16.71;86.50
42603;BME280;28233;55.748;48.752;2023-02-23T03:06:14;97544.63;;;-16.72;86.51
42603;BME280;28233;55.748;48.752;2023-02-23T03:08:45;97551.91;;;-16.74;86.66
42603;BME280;28233;55.748;48.752;2023-02-23T03:11:13;97546.03;;;-16.76;86.42
42603;BME280;28233;55.748;48.752;2023-02-23T03:16:42;97555.94;;;-16.78;86.40
42603;BME280;28233;55.748;48.752;2023-02-23T03:19:29;97565.41;;;-16.77;86.28
42603;BME280;28233;55.748;48.752;2023-02-23T03:22:10;97555.94;;;-16.78;86.47
42603;BME280;28233;55.748;48.752;2023-02-23T03:27:22;97560.78;;;-16.81;85.84
42603;BME280;28233;55.748;48.752;2023-02-23T03:29:58;97569.06;;;-16.85;86.00
42603;BME280;28233;55.748;48.752;2023-02-23T03:32:37;97579.19;;;-16.81;85.93
42603;BME280;28233;55.748;48.752;2023-02-23T03:35:08;97570.69;;;-16.77;85.59
42603;BME280;28233;55.748;48.752;2023-02-23T03:37:44;97573.94;;;-16.75;85.44
42603;BME280;28233;55.748;48.752;2023-02-23T03:42:36;97582.63;;;-16.81;85.45
42603;BME280;28233;55.748;48.752;2023-02-23T03:44:58;97578.94;;;-16.87;85.26
42603;BME280;28233;55.748;48.752;2023-02-23T03:47:23;97580.78;;;-16.87;85.11
42603;BME280;28233;55.748;48.752;2023-02-23T03:49:49;97583.38;;;-16.94;85.24
42603;BME280;28233;55.748;48.752;2023-02-23T03:52:16;97589.69;;;-16.88;85.53
42603;BME280;28233;55.748;48.752;2023-02-23T03:54:47;97584.34;;;-17.01;85.04
42603;BME280;28233;55.748;48.752;2023-02-23T03:57:11;97588.22;;;-16.97;85.89
42603;BME280;28233;55.748;48.752;2023-02-23T03:59:40;97594.31;;;-16.90;85.29
42603;BME280;28233;55.748;48.752;2023-02-23T04:02:07;97589.63;;;-16.95;84.81
42603;BME280;28233;55.748;48.752;2023-02-23T04:04:29;97596.31;;;-16.92;84.66
42603;BME280;28233;55.748;48.752;2023-02-23T04:06:52;97602.41;;;-16.85;85.44
42603;BME280;28233;55.748;48.752;2023-02-23T04:09:16;97601.97;;;-16.89;84.72
42603;BME280;28233;55.748;48.752;2023-02-23T04:11:48;97600.13;;;-16.95;84.92
42603;BME280;28233;55.748;48.752;2023-02-23T04:14:17;97607.22;;;-16.89;85.15
42603;BME280;28233;55.748;48.752;2023-02-23T04:16:21;97607.00;;;-16.94;84.87
42603;BME280;28233;55.748;48.752;2023-02-23T04:18:29;97604.97;;;-16.98;85.32
42603;BME280;28233;55.748;48.752;2023-02-23T04:20:32;97604.38;;;-16.94;85.04
42603;BME280;28233;55.748;48.752;2023-02-23T04:22:35;97614.25;;;-16.96;85.09
42603;BME280;28233;55.748;48.752;2023-02-23T04:24:37;97599.75;;;-16.92;84.80
42603;BME280;28233;55.748;48.752;2023-02-23T04:26:40;97613.06;;;-16.93;85.18
42603;BME280;28233;55.748;48.752;2023-02-23T04:28:43;97624.16;;;-16.98;84.91
42603;BME280;28233;55.748;48.752;2023-02-23T04:30:46;97624.63;;;-16.88;85.16
42603;BME280;28233;55.748;48.752;2023-02-23T04:32:48;97616.97;;;-16.76;84.90
42603;BME280;28233;55.748;48.752;2023-02-23T04:34:51;97630.50;;;-16.79;84.30
42603;BME280;28233;55.748;48.752;2023-02-23T04:36:54;97627.66;;;-16.84;84.26
42603;BME280;28233;55.748;48.752;2023-02-23T04:38:56;97642.63;;;-16.85;84.55
42603;BME280;28233;55.748;48.752;2023-02-23T04:40:59;97638.97;;;-16.90;84.45
42603;BME280;28233;55.748;48.752;2023-02-23T04:43:02;97625.97;;;-16.98;84.69
42603;BME280;28233;55.748;48.752;2023-02-23T04:45:06;97623.16;;;-16.97;84.66
42603;BME280;28233;55.748;48.752;2023-02-23T04:47:09;97634.47;;;-16.96;84.79
42603;BME280;28233;55.748;48.752;2023-02-23T04:49:11;97644.16;;;-16.97;84.52
42603;BME280;28233;55.748;48.752;2023-02-23T04:51:14;97644.84;;;-16.88;84.75
42603;BME280;28233;55.748;48.752;2023-02-23T04:53:17;97632.56;;;-16.81;84.21
42603;BME280;28233;55.748;48.752;2023-02-23T04:55:23;97638.16;;;-16.84;83.94
42603;BME280;28233;55.748;48.752;2023-02-23T04:57:26;97629.66;;;-16.86;83.89
42603;BME280;28233;55.748;48.752;2023-02-23T04:59:29;97634.16;;;-16.73;83.95
42603;BME280;28233;55.748;48.752;2023-02-23T05:01:32;97644.53;;;-16.58;83.85
42603;BME280;28233;55.748;48.752;2023-02-23T05:03:34;97654.84;;;-16.64;83.60
42603;BME280;28233;55.748;48.752;2023-02-23T05:05:38;97642.47;;;-16.70;82.84
42603;BME280;28233;55.748;48.752;2023-02-23T05:07:40;97639.81;;;-16.76;83.27
42603;BME280;28233;55.748;48.752;2023-02-23T05:09:43;97648.72;;;-16.71;83.20
42603;BME280;28233;55.748;48.752;2023-02-23T05:11:46;97658.09;;;-16.62;83.33
42603;BME280;28233;55.748;48.752;2023-02-23T05:13:48;97658.47;;;-16.65;83.17
42603;BME280;28233;55.748;48.752;2023-02-23T05:15:55;97653.81;;;-16.63;82.84
42603;BME280;28233;55.748;48.752;2023-02-23T05:17:58;97650.97;;;-16.68;82.58
42603;BME280;28233;55.748;48.752;2023-02-23T05:20:01;97658.13;;;-16.55;82.58
42603;BME280;28233;55.748;48.752;2023-02-23T05:22:04;97646.94;;;-16.64;82.69
42603;BME280;28233;55.748;48.752;2023-02-23T05:24:07;97662.94;;;-16.58;82.63
42603;BME280;28233;55.748;48.752;2023-02-23T05:26:11;97653.41;;;-16.66;82.03
42603;BME280;28233;55.748;48.752;2023-02-23T05:28:14;97652.97;;;-16.76;82.26
42603;BME280;28233;55.748;48.752;2023-02-23T05:30:17;97662.72;;;-16.64;82.24
42603;BME280;28233;55.748;48.752;2023-02-23T05:32:19;97663.47;;;-16.70;81.76
42603;BME280;28233;55.748;48.752;2023-02-23T05:34:22;97666.69;;;-16.74;81.80
42603;BME280;28233;55.748;48.752;2023-02-23T05:36:25;97656.03;;;-16.66;82.09
42603;BME280;28233;55.748;48.752;2023-02-23T05:38:27;97669.59;;;-16.63;81.76
42603;BME280;28233;55.748;48.752;2023-02-23T05:40:30;97661.25;;;-16.73;81.92
42603;BME280;28233;55.748;48.752;2023-02-23T05:42:33;97666.91;;;-16.76;81.70
42603;BME280;28233;55.748;48.752;2023-02-23T05:44:36;97667.69;;;-16.82;81.67
42603;BME280;28233;55.748;48.752;2023-02-23T05:46:38;97665.06;;;-16.82;81.97
42603;BME280;28233;55.748;48.752;2023-02-23T05:48:41;97683.28;;;-16.74;82.07
42603;BME280;28233;55.748;48.752;2023-02-23T05:50:44;97665.69;;;-16.73;82.06
42603;BME280;28233;55.748;48.752;2023-02-23T05:52:46;97667.53;;;-16.67;82.09
42603;BME280;28233;55.748;48.752;2023-02-23T05:54:49;97660.66;;;-16.68;82.21
42603;BME280;28233;55.748;48.752;2023-02-23T05:56:51;97682.78;;;-16.56;81.60
42603;BME280;28233;55.748;48.752;2023-02-23T05:58:56;97674.53;;;-16.46;82.04
42603;BME280;28233;55.748;48.752;2023-02-23T06:00:59;97666.72;;;-16.33;81.63
42603;BME280;28233;55.748;48.752;2023-02-23T06:03:02;97669.97;;;-16.31;81.58
42603;BME280;28233;55.748;48.752;2023-02-23T06:05:05;97676.47;;;-16.27;81.13
42603;BME280;28233;55.748;48.752;2023-02-23T06:07:07;97679.16;;;-16.07;81.50
42603;BME280;28233;55.748;48.752;2023-02-23T06:09:10;97687.25;;;-16.02;80.93
42603;BME280;28233;55.748;48.752;2023-02-23T06:11:12;97685.47;;;-16.01;80.12
42603;BME280;28233;55.748;48.752;2023-02-23T06:13:15;97670.09;;;-15.91;80.23
42603;BME280;28233;55.748;48.752;2023-02-23T06:15:18;97674.56;;;-15.91;79.93
42603;BME280;28233;55.748;48.752;2023-02-23T06:17:20;97675.34;;;-15.98;79.63
42603;BME280;28233;55.748;48.752;2023-02-23T06:19:23;97685.47;;;-15.94;79.62
42603;BME280;28233;55.748;48.752;2023-02-23T06:21:26;97684.22;;;-16.05;79.23
42603;BME280;28233;55.748;48.752;2023-02-23T06:23:29;97693.19;;;-15.86;79.88
42603;BME280;28233;55.748;48.752;2023-02-23T06:25:32;97688.69;;;-15.99;79.23
42603;BME280;28233;55.748;48.752;2023-02-23T06:27:35;97687.69;;;-15.98;79.24
42603;BME280;28233;55.748;48.752;2023-02-23T06:29:38;97694.13;;;-16.07;79.24
42603;BME280;28233;55.748;48.752;2023-02-23T06:31:41;97692.34;;;-16.00;79.42
42603;BME280;28233;55.748;48.752;2023-02-23T06:33:44;97692.34;;;-16.00;79.37
42603;BME280;28233;55.748;48.752;2023-02-23T06:35:46;97679.41;;;-15.88;78.79
42603;BME280;28233;55.748;48.752;2023-02-23T06:37:49;97684.69;;;-15.88;78.45
42603;BME280;28233;55.748;48.752;2023-02-23T06:39:51;97691.56;;;-15.81;79.00
42603;BME280;28233;55.748;48.752;2023-02-23T06:41:54;97694.84;;;-15.65;78.55
42603;BME280;28233;55.748;48.752;2023-02-23T06:43:57;97696.06;;;-15.61;77.82
42603;BME280;28233;55.748;48.752;2023-02-23T06:45:59;97700.31;;;-15.53;77.67
42603;BME280;28233;55.748;48.752;2023-02-23T06:48:02;97687.75;;;-15.58;77.22
42603;BME280;28233;55.748;48.752;2023-02-23T06:50:06;97696.06;;;-15.55;77.46
42603;BME280;28233;55.748;48.752;2023-02-23T06:52:09;97698.50;;;-15.53;77.35
42603;BME280;28233;55.748;48.752;2023-02-23T06:54:14;97708.00;;;-15.52;77.22
42603;BME280;28233;55.748;48.752;2023-02-23T06:56:17;97709.66;;;-15.31;77.68
42603;BME280;28233;55.748;48.752;2023-02-23T06:58:20;97701.75;;;-15.31;76.87
42603;BME280;28233;55.748;48.752;2023-02-23T07:00:22;97693.44;;;-15.41;76.99
42603;BME280;28233;55.748;48.752;2023-02-23T07:02:25;97703.41;;;-15.23;77.51
42603;BME280;28233;55.748;48.752;2023-02-23T07:04:28;97709.88;;;-15.13;76.77
42603;BME280;28233;55.748;48.752;2023-02-23T07:06:30;97708.28;;;-15.07;76.35
42603;BME280;28233;55.748;48.752;2023-02-23T07:08:34;97708.88;;;-14.98;76.35
42603;BME280;28233;55.748;48.752;2023-02-23T07:10:36;97710.72;;;-14.99;76.30
42603;BME280;28233;55.748;48.752;2023-02-23T07:12:39;97712.53;;;-14.99;76.14
42603;BME280;28233;55.748;48.752;2023-02-23T07:14:41;97711.09;;;-14.88;75.72
42603;BME280;28233;55.748;48.752;2023-02-23T07:16:44;97709.50;;;-14.83;75.96
42603;BME280;28233;55.748;48.752;2023-02-23T07:18:47;97715.56;;;-14.76;75.43
42603;BME280;28233;55.748;48.752;2023-02-23T07:20:49;97714.53;;;-14.81;75.01
42603;BME280;28233;55.748;48.752;2023-02-23T07:22:53;97703.81;;;-14.73;75.51
42603;BME280;28233;55.748;48.752;2023-02-23T07:24:56;97710.50;;;-14.71;75.16
42603;BME280;28233;55.748;48.752;2023-02-23T07:26:58;97701.78;;;-14.64;75.57
42603;BME280;28233;55.748;48.752;2023-02-23T07:29:02;97701.72;;;-14.58;75.42
42603;BME280;28233;55.748;48.752;2023-02-23T07:31:04;97705.00;;;-14.62;75.28
42603;BME280;28233;55.748;48.752;2023-02-23T07:33:07;97712.69;;;-14.61;75.14
42603;BME280;28233;55.748;48.752;2023-02-23T07:35:10;97708.59;;;-14.50;75.55
42603;BME280;28233;55.748;48.752;2023-02-23T07:37:13;97714.50;;;-14.48;74.97
42603;BME280;28233;55.748;48.752;2023-02-23T07:39:15;97723.38;;;-14.36;75.02
42603;BME280;28233;55.748;48.752;2023-02-23T07:41:18;97714.25;;;-14.33;74.93
42603;BME280;28233;55.748;48.752;2023-02-23T07:43:21;97699.41;;;-14.28;75.31
42603;BME280;28233;55.748;48.752;2023-02-23T07:45:25;97719.91;;;-14.30;75.42
42603;BME280;28233;55.748;48.752;2023-02-23T07:47:28;97719.69;;;-14.21;75.21
42603;BME280;28233;55.748;48.752;2023-02-23T07:49:33;97724.34;;;-14.10;74.63
42603;BME280;28233;55.748;48.752;2023-02-23T07:51:36;97723.31;;;-14.09;74.41
42603;BME280;28233;55.748;48.752;2023-02-23T07:53:40;97734.41;;;-13.87;74.38
42603;BME280;28233;55.748;48.752;2023-02-23T07:55:43;97725.41;;;-13.73;74.56
42603;BME280;28233;55.748;48.752;2023-02-23T07:57:46;97725.75;;;-13.63;74.35
42603;BME280;28233;55.748;48.752;2023-02-23T07:59:49;97723.56;;;-13.66;73.48
42603;BME280;28233;55.748;48.752;2023-02-23T08:01:51;97736.53;;;-13.64;73.98
42603;BME280;28233;55.748;48.752;2023-02-23T08:03:54;97739.16;;;-13.64;73.02
42603;BME280;28233;55.748;48.752;2023-02-23T08:05:56;97725.09;;;-13.51;73.00
42603;BME280;28233;55.748;48.752;2023-02-23T08:07:59;97727.66;;;-13.38;72.97
42603;BME280;28233;55.748;48.752;2023-02-23T08:10:02;97735.94;;;-13.28;72.37
42603;BME280;28233;55.748;48.752;2023-02-23T08:12:05;97740.13;;;-13.20;72.13
42603;BME280;28233;55.748;48.752;2023-02-23T08:14:08;97741.69;;;-13.12;71.78
42603;BME280;28233;55.748;48.752;2023-02-23T08:16:11;97745.34;;;-13.07;72.08
42603;BME280;28233;55.748;48.752;2023-02-23T08:18:14;97741.34;;;-12.91;72.21
42603;BME280;28233;55.748;48.752;2023-02-23T08:20:17;97738.88;;;-12.86;71.16
42603;BME280;28233;55.748;48.752;2023-02-23T08:22:19;97729.56;;;-12.70;72.01
42603;BME280;28233;55.748;48.752;2023-02-23T08:24:24;97731.06;;;-12.74;70.65
42603;BME280;28233;55.748;48.752;2023-02-23T08:26:26;97739.75;;;-12.67;71.63
42603;BME280;28233;55.748;48.752;2023-02-23T08:28:29;97735.97;;;-12.52;70.78
42603;BME280;28233;55.748;48.752;2023-02-23T08:30:33;97728.81;;;-12.52;69.90
42603;BME280;28233;55.748;48.752;2023-02-23T08:32:36;97741.66;;;-12.30;71.29
42603;BME280;28233;55.748;48.752;2023-02-23T08:34:42;97732.97;;;-12.38;69.74
42603;BME280;28233;55.748;48.752;2023-02-23T08:36:45;97753.94;;;-12.36;69.88
42603;BME280;28233;55.748;48.752;2023-02-23T08:38:48;97732.38;;;-12.40;69.16
42603;BME280;28233;55.748;48.752;2023-02-23T08:40:51;97736.44;;;-12.19;69.98
42603;BME280;28233;55.748;48.752;2023-02-23T08:42:54;97742.47;;;-12.11;69.82
42603;BME280;28233;55.748;48.752;2023-02-23T08:44:57;97747.69;;;-12.05;69.83
42603;BME280;28233;55.748;48.752;2023-02-23T08:47:05;97726.44;;;-11.98;69.24
42603;BME280;28233;55.748;48.752;2023-02-23T08:49:08;97733.00;;;-12.01;68.52
42603;BME280;28233;55.748;48.752;2023-02-23T08:51:12;97742.19;;;-12.03;69.22
42603;BME280;28233;55.748;48.752;2023-02-23T08:53:16;97741.25;;;-11.79;70.27
42603;BME280;28233;55.748;48.752;2023-02-23T08:55:19;97735.00;;;-11.66;69.18
42603;BME280;28233;55.748;48.752;2023-02-23T08:57:22;97745.16;;;-11.63;67.57
42603;BME280;28233;55.748;48.752;2023-02-23T08:59:25;97742.59;;;-11.70;67.64
42603;BME280;28233;55.748;48.752;2023-02-23T09:01:28;97757.06;;;-11.54;68.73
42603;BME280;28233;55.748;48.752;2023-02-23T09:03:31;97754.50;;;-11.60;67.99
42603;BME280;28233;55.748;48.752;2023-02-23T09:05:37;97751.72;;;-11.65;67.98
42603;BME280;28233;55.748;48.752;2023-02-23T09:07:42;97740.81;;;-11.57;68.38
42603;BME280;28233;55.748;48.752;2023-02-23T09:09:54;97749.34;;;-11.55;67.86
42603;BME280;28233;55.748;48.752;2023-02-23T09:11:57;97745.25;;;-11.70;67.99
42603;BME280;28233;55.748;48.752;2023-02-23T09:14:01;97742.06;;;-11.60;69.01
42603;BME280;28233;55.748;48.752;2023-02-23T09:16:04;97747.50;;;-11.55;68.40
42603;BME280;28233;55.748;48.752;2023-02-23T09:18:12;97739.53;;;-11.55;68.80
42603;BME280;28233;55.748;48.752;2023-02-23T09:20:16;97745.97;;;-11.62;68.98
42603;BME280;28233;55.748;48.752;2023-02-23T09:22:19;97748.75;;;-11.57;69.01
42603;BME280;28233;55.748;48.752;2023-02-23T09:24:21;97749.94;;;-11.53;68.18
42603;BME280;28233;55.748;48.752;2023-02-23T09:26:24;97744.63;;;-11.53;68.76
42603;BME280;28233;55.748;48.752;2023-02-23T09:28:31;97742.69;;;-11.46;68.20
42603;BME280;28233;55.748;48.752;2023-02-23T09:30:35;97752.97;;;-11.50;68.59
42603;BME280;28233;55.748;48.752;2023-02-23T09:32:37;97750.41;;;-11.26;68.67
42603;BME280;28233;55.748;48.752;2023-02-23T09:34:40;97752.09;;;-11.32;67.37
42603;BME280;28233;55.748;48.752;2023-02-23T09:36:43;97739.34;;;-11.23;68.06
42603;BME280;28233;55.748;48.752;2023-02-23T09:38:49;97741.13;;;-11.05;68.01
42603;BME280;28233;55.748;48.752;2023-02-23T09:40:53;97746.28;;;-11.10;66.88
42603;BME280;28233;55.748;48.752;2023-02-23T09:43:29;97755.16;;;-11.16;66.74
42603;BME280;28233;55.748;48.752;2023-02-23T09:45:43;97756.91;;;-11.10;66.76
42603;BME280;28233;55.748;48.752;2023-02-23T09:48:20;97755.88;;;-11.09;66.00
42603;BME280;28233;55.748;48.752;2023-02-23T09:50:25;97755.44;;;-10.94;66.42
42603;BME280;28233;55.748;48.752;2023-02-23T09:52:37;97761.38;;;-10.80;66.98
42603;BME280;28233;55.748;48.752;2023-02-23T09:54:42;97747.41;;;-10.88;65.44
42603;BME280;28233;55.748;48.752;2023-02-23T09:56:48;97755.34;;;-10.88;65.97
42603;BME280;28233;55.748;48.752;2023-02-23T09:58:52;97755.00;;;-10.79;66.14
42603;BME280;28233;55.748;48.752;2023-02-23T10:03:16;97760.31;;;-10.79;64.96
42603;BME280;28233;55.748;48.752;2023-02-23T10:05:21;97751.00;;;-10.70;64.97
42603;BME280;28233;55.748;48.752;2023-02-23T10:07:44;97759.13;;;-10.53;65.46
42603;BME280;28233;55.748;48.752;2023-02-23T10:12:25;97763.13;;;-10.74;64.19
42603;BME280;28233;55.748;48.752;2023-02-23T10:19:21;97766.59;;;-10.62;65.14
42603;BME280;28233;55.748;48.752;2023-02-23T10:21:38;97770.97;;;-10.56;63.99
42603;BME280;28233;55.748;48.752;2023-02-23T10:23:43;97767.41;;;-10.50;64.18
42603;BME280;28233;55.748;48.752;2023-02-23T10:25:50;97779.88;;;-10.27;63.70
42603;BME280;28233;55.748;48.752;2023-02-23T10:27:56;97764.66;;;-10.43;63.62
42603;BME280;28233;55.748;48.752;2023-02-23T10:30:01;97788.56;;;-10.43;63.77
42603;BME280;28233;55.748;48.752;2023-02-23T10:34:35;97766.53;;;-10.32;62.88
42603;BME280;28233;55.748;48.752;2023-02-23T10:37:02;97772.72;;;-10.26;64.23
42603;BME280;28233;55.748;48.752;2023-02-23T10:39:07;97781.41;;;-10.31;63.46
42603;BME280;28233;55.748;48.752;2023-02-23T10:41:10;97783.72;;;-10.23;63.71
42603;BME280;28233;55.748;48.752;2023-02-23T10:43:16;97788.44;;;-10.25;63.85
42603;BME280;28233;55.748;48.752;2023-02-23T10:45:21;97796.16;;;-10.35;63.98
42603;BME280;28233;55.748;48.752;2023-02-23T10:47:30;97795.72;;;-10.32;64.48
42603;BME280;28233;55.748;48.752;2023-02-23T10:49:44;97804.38;;;-10.25;64.02
42603;BME280;28233;55.748;48.752;2023-02-23T10:51:48;97801.72;;;-10.25;65.33
42603;BME280;28233;55.748;48.752;2023-02-23T10:53:52;97801.25;;;-10.33;64.60
42603;BME280;28233;55.748;48.752;2023-02-23T10:56:12;97780.56;;;-10.19;64.38
42603;BME280;28233;55.748;48.752;2023-02-23T10:58:17;97795.81;;;-10.03;64.72
42603;BME280;28233;55.748;48.752;2023-02-23T11:02:29;97789.56;;;-9.73;63.66
42603;BME280;28233;55.748;48.752;2023-02-23T11:04:33;97796.41;;;-9.89;63.09
42603;BME280;28233;55.748;48.752;2023-02-23T11:06:38;97784.81;;;-9.83;64.09
42603;BME280;28233;55.748;48.752;2023-02-23T11:08:40;97795.59;;;-9.90;63.39
42603;BME280;28233;55.748;48.752;2023-02-23T11:11:39;97796.75;;;-9.97;64.05
42603;BME280;28233;55.748;48.752;2023-02-23T11:13:25;97788.31;;;-10.06;63.91
42603;BME280;28233;55.748;48.752;2023-02-23T11:15:30;97795.34;;;-10.00;65.07
42603;BME280;28233;55.748;48.752;2023-02-23T11:18:03;97799.28;;;-9.91;64.50
42603;BME280;28233;55.748;48.752;2023-02-23T11:22:18;97791.53;;;-10.04;64.78
42603;BME280;28233;55.748;48.752;2023-02-23T11:24:33;97794.56;;;-10.12;65.59
42603;BME280;28233;55.748;48.752;2023-02-23T11:26:38;97795.81;;;-10.03;65.55
42603;BME280;28233;55.748;48.752;2023-02-23T11:28:42;97806.66;;;-9.93;66.02
42603;BME280;28233;55.748;48.752;2023-02-23T11:30:46;97798.25;;;-9.90;66.44
42603;BME280;28233;55.748;48.752;2023-02-23T11:32:52;97806.44;;;-9.80;65.79
42603;BME280;28233;55.748;48.752;2023-02-23T11:39:20;97824.69;;;-9.83;65.80
42603;BME280;28233;55.748;48.752;2023-02-23T11:41:25;97816.84;;;-9.78;65.40
42603;BME280;28233;55.748;48.752;2023-02-23T11:43:29;97816.59;;;-9.76;65.04
42603;BME280;28233;55.748;48.752;2023-02-23T11:45:38;97813.72;;;-9.75;65.29